sensor_id;sensor_type;location;lat;lon;timestamp;P1;durP1;ratioP1;P2;durP2;ratioP2
47523;SDS011;33253;42.144;25.884;2023-12-07T00:01:38;62.55;;;27.15;;
47523;SDS011;33253;42.144;25.884;2023-12-07T00:04:03;55.35;;;25.98;;
47523;SDS011;33253;42.144;25.884;2023-12-07T00:06:29;57.40;;;27.33;;
47523;SDS011;33253;42.144;25.884;2023-12-07T00:08:54;53.92;;;25.42;;
47523;SDS011;33253;42.144;25.884;2023-12-07T00:11:21;61.45;;;26.92;;
47523;SDS011;33253;42.144;25.884;2023-12-07T00:13:48;49.53;;;25.00;;
47523;SDS011;33253;42.144;25.884;2023-12-07T00:16:13;56.80;;;25.15;;
47523;SDS011;33253;42.144;25.884;2023-12-07T00:18:39;57.53;;;25.75;;
47523;SDS011;33253;42.144;25.884;2023-12-07T00:21:04;57.00;;;25.42;;
47523;SDS011;33253;42.144;25.884;2023-12-07T00:23:32;59.53;;;27.33;;
47523;SDS011;33253;42.144;25.884;2023-12-07T00:25:58;58.33;;;26.88;;
47523;SDS011;33253;42.144;25.884;2023-12-07T00:28:23;57.42;;;26.40;;
47523;SDS011;33253;42.144;25.884;2023-12-07T00:30:49;67.63;;;28.33;;
47523;SDS011;33253;42.144;25.884;2023-12-07T00:33:14;69.97;;;31.40;;
47523;SDS011;33253;42.144;25.884;2023-12-07T00:35:40;65.03;;;29.48;;
47523;SDS011;33253;42.144;25.884;2023-12-07T00:38:05;67.35;;;28.77;;
47523;SDS011;33253;42.144;25.884;2023-12-07T00:40:33;64.72;;;27.50;;
47523;SDS011;33253;42.144;25.884;2023-12-07T00:43:01;64.40;;;28.42;;
47523;SDS011;33253;42.144;25.884;2023-12-07T00:45:28;68.20;;;30.52;;
47523;SDS011;33253;42.144;25.884;2023-12-07T00:47:53;67.40;;;29.38;;
47523;SDS011;33253;42.144;25.884;2023-12-07T00:50:19;64.40;;;28.17;;
47523;SDS011;33253;42.144;25.884;2023-12-07T00:52:45;64.25;;;27.90;;
47523;SDS011;33253;42.144;25.884;2023-12-07T00:55:10;66.18;;;28.50;;
47523;SDS011;33253;42.144;25.884;2023-12-07T00:57:36;70.28;;;34.90;;
47523;SDS011;33253;42.144;25.884;2023-12-07T01:00:01;65.47;;;31.45;;
47523;SDS011;33253;42.144;25.884;2023-12-07T01:02:27;61.40;;;29.08;;
47523;SDS011;33253;42.144;25.884;2023-12-07T01:04:52;58.78;;;26.13;;
47523;SDS011;33253;42.144;25.884;2023-12-07T01:07:18;65.53;;;28.65;;
47523;SDS011;33253;42.144;25.884;2023-12-07T01:09:43;60.15;;;26.48;;
47523;SDS011;33253;42.144;25.884;2023-12-07T01:12:09;64.57;;;28.45;;
47523;SDS011;33253;42.144;25.884;2023-12-07T01:14:34;64.72;;;27.83;;
47523;SDS011;33253;42.144;25.884;2023-12-07T01:17:00;61.53;;;26.52;;
47523;SDS011;33253;42.144;25.884;2023-12-07T01:19:25;61.33;;;26.58;;
47523;SDS011;33253;42.144;25.884;2023-12-07T01:21:51;53.33;;;24.13;;
47523;SDS011;33253;42.144;25.884;2023-12-07T01:24:16;63.17;;;26.00;;
47523;SDS011;33253;42.144;25.884;2023-12-07T01:26:42;59.85;;;26.08;;
47523;SDS011;33253;42.144;25.884;2023-12-07T01:29:08;61.05;;;26.40;;
47523;SDS011;33253;42.144;25.884;2023-12-07T01:31:33;65.57;;;28.20;;
47523;SDS011;33253;42.144;25.884;2023-12-07T01:33:59;56.30;;;25.55;;
47523;SDS011;33253;42.144;25.884;2023-12-07T01:36:24;53.08;;;26.05;;
47523;SDS011;33253;42.144;25.884;2023-12-07T01:38:50;62.22;;;28.83;;
47523;SDS011;33253;42.144;25.884;2023-12-07T01:41:15;63.90;;;27.63;;
47523;SDS011;33253;42.144;25.884;2023-12-07T01:43:45;58.00;;;25.50;;
47523;SDS011;33253;42.144;25.884;2023-12-07T01:46:11;69.18;;;29.77;;
47523;SDS011;33253;42.144;25.884;2023-12-07T01:48:37;63.75;;;27.05;;
47523;SDS011;33253;42.144;25.884;2023-12-07T01:51:02;66.35;;;27.65;;
47523;SDS011;33253;42.144;25.884;2023-12-07T01:53:28;65.38;;;27.95;;
47523;SDS011;33253;42.144;25.884;2023-12-07T01:55:54;63.45;;;26.75;;
47523;SDS011;33253;42.144;25.884;2023-12-07T01:58:20;55.80;;;24.38;;
47523;SDS011;33253;42.144;25.884;2023-12-07T02:00:46;59.60;;;25.02;;
47523;SDS011;33253;42.144;25.884;2023-12-07T02:03:12;55.42;;;26.15;;
47523;SDS011;33253;42.144;25.884;2023-12-07T02:05:42;52.80;;;25.05;;
47523;SDS011;33253;42.144;25.884;2023-12-07T02:08:11;60.50;;;25.30;;
47523;SDS011;33253;42.144;25.884;2023-12-07T02:10:36;51.10;;;25.58;;
47523;SDS011;33253;42.144;25.884;2023-12-07T02:13:02;53.25;;;23.85;;
47523;SDS011;33253;42.144;25.884;2023-12-07T02:15:28;56.95;;;24.90;;
47523;SDS011;33253;42.144;25.884;2023-12-07T02:18:06;49.90;;;22.38;;
47523;SDS011;33253;42.144;25.884;2023-12-07T02:23:22;52.90;;;23.55;;
47523;SDS011;33253;42.144;25.884;2023-12-07T02:28:47;50.42;;;22.60;;
47523;SDS011;33253;42.144;25.884;2023-12-07T02:31:13;51.30;;;23.60;;
47523;SDS011;33253;42.144;25.884;2023-12-07T02:50:27;49.42;;;22.95;;
47523;SDS011;33253;42.144;25.884;2023-12-07T02:52:52;51.17;;;23.13;;
47523;SDS011;33253;42.144;25.884;2023-12-07T02:55:18;43.90;;;21.05;;
47523;SDS011;33253;42.144;25.884;2023-12-07T02:57:43;49.88;;;22.80;;
47523;SDS011;33253;42.144;25.884;2023-12-07T03:00:09;44.88;;;21.02;;
47523;SDS011;33253;42.144;25.884;2023-12-07T03:02:38;40.33;;;19.95;;
47523;SDS011;33253;42.144;25.884;2023-12-07T03:05:06;49.03;;;23.08;;
47523;SDS011;33253;42.144;25.884;2023-12-07T03:07:35;39.85;;;19.63;;
47523;SDS011;33253;42.144;25.884;2023-12-07T03:10:01;40.40;;;20.27;;
47523;SDS011;33253;42.144;25.884;2023-12-07T03:12:27;44.63;;;20.40;;
47523;SDS011;33253;42.144;25.884;2023-12-07T03:14:53;44.13;;;20.98;;
47523;SDS011;33253;42.144;25.884;2023-12-07T03:17:18;42.50;;;20.00;;
47523;SDS011;33253;42.144;25.884;2023-12-07T03:19:44;42.63;;;21.33;;
47523;SDS011;33253;42.144;25.884;2023-12-07T03:22:10;44.65;;;21.55;;
47523;SDS011;33253;42.144;25.884;2023-12-07T03:24:36;46.38;;;21.50;;
47523;SDS011;33253;42.144;25.884;2023-12-07T03:27:02;49.30;;;21.50;;
47523;SDS011;33253;42.144;25.884;2023-12-07T03:29:28;44.63;;;21.15;;
47523;SDS011;33253;42.144;25.884;2023-12-07T03:31:53;44.00;;;21.48;;
47523;SDS011;33253;42.144;25.884;2023-12-07T03:34:19;47.03;;;21.23;;
47523;SDS011;33253;42.144;25.884;2023-12-07T03:36:48;46.97;;;19.90;;
47523;SDS011;33253;42.144;25.884;2023-12-07T03:39:14;42.15;;;20.45;;
47523;SDS011;33253;42.144;25.884;2023-12-07T03:41:41;44.10;;;19.58;;
47523;SDS011;33253;42.144;25.884;2023-12-07T03:44:07;39.65;;;19.27;;
47523;SDS011;33253;42.144;25.884;2023-12-07T03:46:33;41.67;;;19.60;;
47523;SDS011;33253;42.144;25.884;2023-12-07T03:48:59;40.97;;;18.95;;
47523;SDS011;33253;42.144;25.884;2023-12-07T03:51:28;38.55;;;18.73;;
47523;SDS011;33253;42.144;25.884;2023-12-07T03:53:54;38.97;;;18.85;;
47523;SDS011;33253;42.144;25.884;2023-12-07T03:56:26;40.63;;;20.20;;
47523;SDS011;33253;42.144;25.884;2023-12-07T03:58:53;42.42;;;19.63;;
47523;SDS011;33253;42.144;25.884;2023-12-07T04:01:22;40.58;;;20.00;;
47523;SDS011;33253;42.144;25.884;2023-12-07T04:03:50;43.42;;;21.05;;
47523;SDS011;33253;42.144;25.884;2023-12-07T04:06:19;42.22;;;20.85;;
47523;SDS011;33253;42.144;25.884;2023-12-07T04:08:45;48.20;;;24.65;;
47523;SDS011;33253;42.144;25.884;2023-12-07T04:11:11;44.30;;;21.98;;
47523;SDS011;33253;42.144;25.884;2023-12-07T04:13:37;41.15;;;19.45;;
47523;SDS011;33253;42.144;25.884;2023-12-07T04:16:03;41.95;;;21.40;;
47523;SDS011;33253;42.144;25.884;2023-12-07T04:18:29;48.00;;;20.95;;
47523;SDS011;33253;42.144;25.884;2023-12-07T04:20:54;43.88;;;20.20;;
47523;SDS011;33253;42.144;25.884;2023-12-07T04:23:20;47.00;;;21.50;;
47523;SDS011;33253;42.144;25.884;2023-12-07T04:25:45;48.67;;;21.80;;
47523;SDS011;33253;42.144;25.884;2023-12-07T04:28:11;46.53;;;20.67;;
47523;SDS011;33253;42.144;25.884;2023-12-07T04:30:36;47.00;;;20.25;;
47523;SDS011;33253;42.144;25.884;2023-12-07T04:33:02;53.40;;;22.15;;
47523;SDS011;33253;42.144;25.884;2023-12-07T04:35:28;50.60;;;21.70;;
47523;SDS011;33253;42.144;25.884;2023-12-07T04:37:54;45.10;;;20.40;;
47523;SDS011;33253;42.144;25.884;2023-12-07T04:40:19;47.95;;;21.52;;
47523;SDS011;33253;42.144;25.884;2023-12-07T04:42:45;48.20;;;22.02;;
47523;SDS011;33253;42.144;25.884;2023-12-07T04:45:11;47.47;;;22.17;;
47523;SDS011;33253;42.144;25.884;2023-12-07T04:47:36;49.75;;;21.67;;
47523;SDS011;33253;42.144;25.884;2023-12-07T04:50:02;47.13;;;21.30;;
47523;SDS011;33253;42.144;25.884;2023-12-07T04:52:27;45.33;;;21.23;;
47523;SDS011;33253;42.144;25.884;2023-12-07T04:54:53;46.15;;;21.95;;
47523;SDS011;33253;42.144;25.884;2023-12-07T04:57:18;43.33;;;22.63;;
47523;SDS011;33253;42.144;25.884;2023-12-07T04:59:44;48.20;;;23.08;;
47523;SDS011;33253;42.144;25.884;2023-12-07T05:02:15;51.58;;;24.83;;
47523;SDS011;33253;42.144;25.884;2023-12-07T05:04:41;50.97;;;21.17;;
47523;SDS011;33253;42.144;25.884;2023-12-07T05:07:07;45.20;;;22.30;;
47523;SDS011;33253;42.144;25.884;2023-12-07T05:09:33;46.47;;;22.85;;
47523;SDS011;33253;42.144;25.884;2023-12-07T05:11:59;49.08;;;24.33;;
47523;SDS011;33253;42.144;25.884;2023-12-07T05:14:24;47.63;;;23.60;;
47523;SDS011;33253;42.144;25.884;2023-12-07T05:16:50;46.92;;;23.92;;
47523;SDS011;33253;42.144;25.884;2023-12-07T05:19:21;51.42;;;26.13;;
47523;SDS011;33253;42.144;25.884;2023-12-07T05:21:49;54.75;;;24.20;;
47523;SDS011;33253;42.144;25.884;2023-12-07T05:24:15;49.80;;;25.20;;
47523;SDS011;33253;42.144;25.884;2023-12-07T05:26:44;50.72;;;25.15;;
47523;SDS011;33253;42.144;25.884;2023-12-07T05:29:14;49.42;;;25.30;;
47523;SDS011;33253;42.144;25.884;2023-12-07T05:31:40;53.50;;;27.48;;
47523;SDS011;33253;42.144;25.884;2023-12-07T05:34:09;46.22;;;22.30;;
47523;SDS011;33253;42.144;25.884;2023-12-07T05:36:35;50.90;;;23.40;;
47523;SDS011;33253;42.144;25.884;2023-12-07T05:39:00;44.88;;;23.00;;
47523;SDS011;33253;42.144;25.884;2023-12-07T05:41:26;45.22;;;23.17;;
47523;SDS011;33253;42.144;25.884;2023-12-07T05:43:52;44.63;;;21.65;;
47523;SDS011;33253;42.144;25.884;2023-12-07T05:46:18;46.40;;;23.10;;
47523;SDS011;33253;42.144;25.884;2023-12-07T05:48:44;47.90;;;22.17;;
47523;SDS011;33253;42.144;25.884;2023-12-07T05:51:13;45.53;;;22.73;;
47523;SDS011;33253;42.144;25.884;2023-12-07T05:53:42;47.80;;;23.63;;
47523;SDS011;33253;42.144;25.884;2023-12-07T05:56:09;45.15;;;24.17;;
47523;SDS011;33253;42.144;25.884;2023-12-07T05:58:35;46.78;;;24.15;;
47523;SDS011;33253;42.144;25.884;2023-12-07T06:01:00;45.15;;;22.27;;
47523;SDS011;33253;42.144;25.884;2023-12-07T06:03:29;48.22;;;23.25;;
47523;SDS011;33253;42.144;25.884;2023-12-07T06:05:55;47.58;;;23.15;;
47523;SDS011;33253;42.144;25.884;2023-12-07T06:08:22;49.67;;;24.10;;
47523;SDS011;33253;42.144;25.884;2023-12-07T06:10:48;49.47;;;23.67;;
47523;SDS011;33253;42.144;25.884;2023-12-07T06:13:13;45.97;;;23.60;;
47523;SDS011;33253;42.144;25.884;2023-12-07T06:15:39;46.83;;;24.20;;
47523;SDS011;33253;42.144;25.884;2023-12-07T06:18:05;47.88;;;23.55;;
47523;SDS011;33253;42.144;25.884;2023-12-07T06:20:31;50.83;;;24.30;;
47523;SDS011;33253;42.144;25.884;2023-12-07T06:22:57;48.05;;;24.13;;
47523;SDS011;33253;42.144;25.884;2023-12-07T06:25:23;43.08;;;22.83;;
47523;SDS011;33253;42.144;25.884;2023-12-07T06:27:50;44.78;;;22.38;;
47523;SDS011;33253;42.144;25.884;2023-12-07T06:30:15;47.33;;;22.70;;
47523;SDS011;33253;42.144;25.884;2023-12-07T06:32:41;41.85;;;22.48;;
47523;SDS011;33253;42.144;25.884;2023-12-07T06:35:07;41.58;;;20.83;;
47523;SDS011;33253;42.144;25.884;2023-12-07T06:37:33;46.20;;;22.50;;
47523;SDS011;33253;42.144;25.884;2023-12-07T06:40:00;39.38;;;20.85;;
47523;SDS011;33253;42.144;25.884;2023-12-07T06:42:26;39.90;;;21.13;;
47523;SDS011;33253;42.144;25.884;2023-12-07T06:44:52;38.45;;;21.55;;
47523;SDS011;33253;42.144;25.884;2023-12-07T06:47:17;41.17;;;21.67;;
47523;SDS011;33253;42.144;25.884;2023-12-07T06:49:43;39.05;;;20.83;;
47523;SDS011;33253;42.144;25.884;2023-12-07T06:52:10;44.22;;;23.77;;
47523;SDS011;33253;42.144;25.884;2023-12-07T06:54:36;40.55;;;22.95;;
47523;SDS011;33253;42.144;25.884;2023-12-07T06:57:02;37.88;;;21.30;;
47523;SDS011;33253;42.144;25.884;2023-12-07T06:59:28;35.05;;;19.67;;
47523;SDS011;33253;42.144;25.884;2023-12-07T07:01:53;37.83;;;21.27;;
47523;SDS011;33253;42.144;25.884;2023-12-07T07:04:19;38.10;;;21.33;;
47523;SDS011;33253;42.144;25.884;2023-12-07T07:06:44;33.55;;;18.42;;
47523;SDS011;33253;42.144;25.884;2023-12-07T07:09:10;37.38;;;20.52;;
47523;SDS011;33253;42.144;25.884;2023-12-07T07:11:36;40.78;;;21.10;;
47523;SDS011;33253;42.144;25.884;2023-12-07T07:14:02;42.90;;;22.10;;
47523;SDS011;33253;42.144;25.884;2023-12-07T07:16:27;36.75;;;20.63;;
47523;SDS011;33253;42.144;25.884;2023-12-07T07:18:53;41.72;;;22.15;;
47523;SDS011;33253;42.144;25.884;2023-12-07T07:21:18;39.83;;;21.17;;
47523;SDS011;33253;42.144;25.884;2023-12-07T07:23:46;37.35;;;21.23;;
47523;SDS011;33253;42.144;25.884;2023-12-07T07:26:12;40.05;;;20.98;;
47523;SDS011;33253;42.144;25.884;2023-12-07T07:28:42;34.33;;;20.52;;
47523;SDS011;33253;42.144;25.884;2023-12-07T07:31:08;36.10;;;21.08;;
47523;SDS011;33253;42.144;25.884;2023-12-07T07:33:33;40.85;;;21.77;;
47523;SDS011;33253;42.144;25.884;2023-12-07T07:35:59;37.60;;;21.90;;
47523;SDS011;33253;42.144;25.884;2023-12-07T07:38:24;38.25;;;23.60;;
47523;SDS011;33253;42.144;25.884;2023-12-07T07:40:49;39.08;;;21.38;;
47523;SDS011;33253;42.144;25.884;2023-12-07T07:43:15;42.25;;;23.13;;
47523;SDS011;33253;42.144;25.884;2023-12-07T07:45:40;33.58;;;18.77;;
47523;SDS011;33253;42.144;25.884;2023-12-07T07:48:06;30.23;;;18.80;;
47523;SDS011;33253;42.144;25.884;2023-12-07T07:50:31;30.15;;;19.02;;
47523;SDS011;33253;42.144;25.884;2023-12-07T07:52:57;29.50;;;17.35;;
47523;SDS011;33253;42.144;25.884;2023-12-07T07:55:23;29.77;;;17.48;;
47523;SDS011;33253;42.144;25.884;2023-12-07T07:57:48;59.78;;;38.42;;
47523;SDS011;33253;42.144;25.884;2023-12-07T08:03:13;42.25;;;22.40;;
47523;SDS011;33253;42.144;25.884;2023-12-07T08:05:38;47.22;;;26.00;;
47523;SDS011;33253;42.144;25.884;2023-12-07T08:08:04;36.55;;;20.27;;
47523;SDS011;33253;42.144;25.884;2023-12-07T08:10:29;43.20;;;23.40;;
47523;SDS011;33253;42.144;25.884;2023-12-07T08:12:55;44.95;;;23.00;;
47523;SDS011;33253;42.144;25.884;2023-12-07T08:15:20;39.10;;;22.17;;
47523;SDS011;33253;42.144;25.884;2023-12-07T08:17:46;47.67;;;22.65;;
47523;SDS011;33253;42.144;25.884;2023-12-07T08:20:12;51.75;;;22.95;;
47523;SDS011;33253;42.144;25.884;2023-12-07T08:22:39;46.70;;;25.27;;
47523;SDS011;33253;42.144;25.884;2023-12-07T08:25:09;47.35;;;22.40;;
47523;SDS011;33253;42.144;25.884;2023-12-07T08:27:39;45.90;;;23.13;;
47523;SDS011;33253;42.144;25.884;2023-12-07T08:30:05;43.08;;;21.55;;
47523;SDS011;33253;42.144;25.884;2023-12-07T08:32:31;48.75;;;22.27;;
47523;SDS011;33253;42.144;25.884;2023-12-07T08:34:56;42.05;;;21.42;;
47523;SDS011;33253;42.144;25.884;2023-12-07T08:37:22;45.33;;;22.63;;
47523;SDS011;33253;42.144;25.884;2023-12-07T08:39:47;44.55;;;20.60;;
47523;SDS011;33253;42.144;25.884;2023-12-07T08:42:14;48.67;;;21.33;;
47523;SDS011;33253;42.144;25.884;2023-12-07T08:44:39;48.75;;;23.92;;
47523;SDS011;33253;42.144;25.884;2023-12-07T08:47:05;41.55;;;21.17;;
47523;SDS011;33253;42.144;25.884;2023-12-07T08:49:30;40.83;;;21.45;;
47523;SDS011;33253;42.144;25.884;2023-12-07T08:51:56;46.15;;;22.50;;
47523;SDS011;33253;42.144;25.884;2023-12-07T08:54:22;44.67;;;21.25;;
47523;SDS011;33253;42.144;25.884;2023-12-07T08:56:48;37.60;;;19.17;;
47523;SDS011;33253;42.144;25.884;2023-12-07T08:59:13;42.03;;;20.92;;
47523;SDS011;33253;42.144;25.884;2023-12-07T09:01:39;44.22;;;22.80;;
47523;SDS011;33253;42.144;25.884;2023-12-07T09:04:04;40.83;;;20.58;;
47523;SDS011;33253;42.144;25.884;2023-12-07T09:06:30;37.65;;;20.27;;
47523;SDS011;33253;42.144;25.884;2023-12-07T09:08:56;38.63;;;20.55;;
47523;SDS011;33253;42.144;25.884;2023-12-07T09:11:21;47.78;;;22.05;;
47523;SDS011;33253;42.144;25.884;2023-12-07T09:13:47;40.78;;;21.05;;
47523;SDS011;33253;42.144;25.884;2023-12-07T09:16:12;40.97;;;21.30;;
47523;SDS011;33253;42.144;25.884;2023-12-07T09:18:38;40.38;;;21.13;;
47523;SDS011;33253;42.144;25.884;2023-12-07T09:21:04;42.05;;;21.08;;
47523;SDS011;33253;42.144;25.884;2023-12-07T09:23:30;38.85;;;22.58;;
47523;SDS011;33253;42.144;25.884;2023-12-07T09:25:56;47.25;;;22.27;;
47523;SDS011;33253;42.144;25.884;2023-12-07T09:28:22;35.50;;;18.90;;
47523;SDS011;33253;42.144;25.884;2023-12-07T09:30:48;40.80;;;19.48;;
47523;SDS011;33253;42.144;25.884;2023-12-07T09:33:14;40.45;;;18.60;;
47523;SDS011;33253;42.144;25.884;2023-12-07T09:35:39;39.25;;;20.65;;
47523;SDS011;33253;42.144;25.884;2023-12-07T09:38:05;45.28;;;22.63;;
47523;SDS011;33253;42.144;25.884;2023-12-07T09:40:32;37.97;;;20.08;;
47523;SDS011;33253;42.144;25.884;2023-12-07T09:42:57;32.15;;;16.95;;
47523;SDS011;33253;42.144;25.884;2023-12-07T09:45:23;36.72;;;20.27;;
47523;SDS011;33253;42.144;25.884;2023-12-07T09:47:49;35.55;;;18.00;;
47523;SDS011;33253;42.144;25.884;2023-12-07T09:50:16;36.10;;;19.08;;
47523;SDS011;33253;42.144;25.884;2023-12-07T09:52:43;29.00;;;16.83;;
47523;SDS011;33253;42.144;25.884;2023-12-07T09:55:09;27.73;;;14.40;;
47523;SDS011;33253;42.144;25.884;2023-12-07T09:57:36;27.05;;;14.85;;
47523;SDS011;33253;42.144;25.884;2023-12-07T10:00:03;30.02;;;16.02;;
47523;SDS011;33253;42.144;25.884;2023-12-07T10:02:29;28.63;;;15.68;;
47523;SDS011;33253;42.144;25.884;2023-12-07T10:05:08;30.38;;;16.48;;
47523;SDS011;33253;42.144;25.884;2023-12-07T10:07:56;28.23;;;15.07;;
47523;SDS011;33253;42.144;25.884;2023-12-07T10:10:22;24.92;;;14.18;;
47523;SDS011;33253;42.144;25.884;2023-12-07T10:12:50;25.73;;;13.75;;
47523;SDS011;33253;42.144;25.884;2023-12-07T10:15:17;25.13;;;13.55;;
47523;SDS011;33253;42.144;25.884;2023-12-07T10:17:58;24.60;;;12.02;;
47523;SDS011;33253;42.144;25.884;2023-12-07T10:20:25;17.90;;;10.93;;
47523;SDS011;33253;42.144;25.884;2023-12-07T10:23:02;21.80;;;10.85;;
47523;SDS011;33253;42.144;25.884;2023-12-07T10:25:32;23.75;;;12.48;;
47523;SDS011;33253;42.144;25.884;2023-12-07T10:28:00;20.95;;;11.32;;
47523;SDS011;33253;42.144;25.884;2023-12-07T10:30:29;20.80;;;11.55;;
47523;SDS011;33253;42.144;25.884;2023-12-07T10:32:54;22.55;;;11.20;;
47523;SDS011;33253;42.144;25.884;2023-12-07T10:35:20;17.50;;;10.45;;
47523;SDS011;33253;42.144;25.884;2023-12-07T10:37:46;20.00;;;11.10;;
47523;SDS011;33253;42.144;25.884;2023-12-07T10:40:12;22.27;;;11.13;;
47523;SDS011;33253;42.144;25.884;2023-12-07T10:42:37;18.88;;;10.68;;
47523;SDS011;33253;42.144;25.884;2023-12-07T10:45:07;17.63;;;10.02;;
47523;SDS011;33253;42.144;25.884;2023-12-07T10:47:35;19.67;;;11.07;;
47523;SDS011;33253;42.144;25.884;2023-12-07T10:50:03;17.75;;;9.02;;
47523;SDS011;33253;42.144;25.884;2023-12-07T10:52:36;17.02;;;9.13;;
47523;SDS011;33253;42.144;25.884;2023-12-07T10:55:03;15.95;;;9.65;;
47523;SDS011;33253;42.144;25.884;2023-12-07T10:57:32;14.80;;;8.10;;
47523;SDS011;33253;42.144;25.884;2023-12-07T10:59:59;12.45;;;8.05;;
47523;SDS011;33253;42.144;25.884;2023-12-07T11:02:26;18.05;;;8.27;;
47523;SDS011;33253;42.144;25.884;2023-12-07T11:04:55;13.23;;;7.85;;
47523;SDS011;33253;42.144;25.884;2023-12-07T11:07:22;15.38;;;7.38;;
47523;SDS011;33253;42.144;25.884;2023-12-07T11:09:58;15.68;;;7.38;;
47523;SDS011;33253;42.144;25.884;2023-12-07T11:12:30;11.27;;;6.72;;
47523;SDS011;33253;42.144;25.884;2023-12-07T11:15:00;13.75;;;7.43;;
47523;SDS011;33253;42.144;25.884;2023-12-07T11:17:27;11.65;;;7.25;;
47523;SDS011;33253;42.144;25.884;2023-12-07T11:19:52;10.88;;;6.75;;
47523;SDS011;33253;42.144;25.884;2023-12-07T11:22:18;9.77;;;6.47;;
47523;SDS011;33253;42.144;25.884;2023-12-07T11:24:57;9.63;;;6.25;;
47523;SDS011;33253;42.144;25.884;2023-12-07T11:27:28;12.02;;;7.15;;
47523;SDS011;33253;42.144;25.884;2023-12-07T11:29:55;8.93;;;4.47;;
47523;SDS011;33253;42.144;25.884;2023-12-07T11:32:23;8.32;;;4.70;;
47523;SDS011;33253;42.144;25.884;2023-12-07T11:34:48;10.13;;;5.85;;
47523;SDS011;33253;42.144;25.884;2023-12-07T11:37:14;8.02;;;5.40;;
47523;SDS011;33253;42.144;25.884;2023-12-07T11:39:44;10.90;;;6.55;;
47523;SDS011;33253;42.144;25.884;2023-12-07T11:42:16;8.40;;;4.80;;
47523;SDS011;33253;42.144;25.884;2023-12-07T11:44:48;8.57;;;4.93;;
47523;SDS011;33253;42.144;25.884;2023-12-07T11:47:18;10.13;;;5.07;;
47523;SDS011;33253;42.144;25.884;2023-12-07T11:49:46;12.30;;;4.63;;
47523;SDS011;33253;42.144;25.884;2023-12-07T11:52:13;8.52;;;4.18;;
47523;SDS011;33253;42.144;25.884;2023-12-07T11:54:40;10.02;;;4.93;;
47523;SDS011;33253;42.144;25.884;2023-12-07T11:57:07;13.02;;;5.30;;
47523;SDS011;33253;42.144;25.884;2023-12-07T11:59:32;10.93;;;4.90;;
47523;SDS011;33253;42.144;25.884;2023-12-07T12:02:01;4.47;;;2.65;;
47523;SDS011;33253;42.144;25.884;2023-12-07T12:04:29;3.08;;;1.80;;
47523;SDS011;33253;42.144;25.884;2023-12-07T12:06:55;4.72;;;2.20;;
47523;SDS011;33253;42.144;25.884;2023-12-07T12:09:20;5.13;;;3.35;;
47523;SDS011;33253;42.144;25.884;2023-12-07T12:11:46;5.15;;;2.33;;
47523;SDS011;33253;42.144;25.884;2023-12-07T12:14:15;8.43;;;4.30;;
47523;SDS011;33253;42.144;25.884;2023-12-07T12:16:44;6.13;;;4.07;;
47523;SDS011;33253;42.144;25.884;2023-12-07T12:19:11;5.38;;;2.95;;
47523;SDS011;33253;42.144;25.884;2023-12-07T12:21:39;6.80;;;3.10;;
47523;SDS011;33253;42.144;25.884;2023-12-07T12:24:06;6.18;;;2.95;;
47523;SDS011;33253;42.144;25.884;2023-12-07T12:26:34;6.25;;;3.05;;
47523;SDS011;33253;42.144;25.884;2023-12-07T12:29:00;5.15;;;1.95;;
47523;SDS011;33253;42.144;25.884;2023-12-07T12:31:27;4.22;;;2.20;;
47523;SDS011;33253;42.144;25.884;2023-12-07T12:33:54;1.73;;;1.10;;
47523;SDS011;33253;42.144;25.884;2023-12-07T12:36:20;2.65;;;1.15;;
47523;SDS011;33253;42.144;25.884;2023-12-07T12:38:52;3.42;;;1.20;;
47523;SDS011;33253;42.144;25.884;2023-12-07T12:41:24;1.65;;;1.10;;
47523;SDS011;33253;42.144;25.884;2023-12-07T12:43:49;4.25;;;2.00;;
47523;SDS011;33253;42.144;25.884;2023-12-07T12:46:16;2.67;;;1.50;;
47523;SDS011;33253;42.144;25.884;2023-12-07T12:48:55;4.15;;;1.58;;
47523;SDS011;33253;42.144;25.884;2023-12-07T12:51:23;2.97;;;1.65;;
47523;SDS011;33253;42.144;25.884;2023-12-07T12:53:53;5.38;;;2.25;;
47523;SDS011;33253;42.144;25.884;2023-12-07T12:56:20;6.65;;;2.65;;
47523;SDS011;33253;42.144;25.884;2023-12-07T12:58:47;5.00;;;2.00;;
47523;SDS011;33253;42.144;25.884;2023-12-07T13:01:14;3.90;;;2.00;;
47523;SDS011;33253;42.144;25.884;2023-12-07T13:03:42;3.53;;;1.43;;
47523;SDS011;33253;42.144;25.884;2023-12-07T13:06:10;3.00;;;1.70;;
47523;SDS011;33253;42.144;25.884;2023-12-07T13:08:37;5.22;;;1.60;;
47523;SDS011;33253;42.144;25.884;2023-12-07T13:11:02;3.90;;;1.45;;
47523;SDS011;33253;42.144;25.884;2023-12-07T13:13:28;3.53;;;1.42;;
47523;SDS011;33253;42.144;25.884;2023-12-07T13:15:54;3.80;;;1.55;;
47523;SDS011;33253;42.144;25.884;2023-12-07T13:18:20;2.60;;;1.23;;
47523;SDS011;33253;42.144;25.884;2023-12-07T13:20:45;6.55;;;1.77;;
47523;SDS011;33253;42.144;25.884;2023-12-07T13:23:11;4.82;;;1.80;;
47523;SDS011;33253;42.144;25.884;2023-12-07T13:25:36;3.75;;;1.63;;
47523;SDS011;33253;42.144;25.884;2023-12-07T13:28:02;6.28;;;1.75;;
47523;SDS011;33253;42.144;25.884;2023-12-07T13:30:27;2.35;;;1.17;;
47523;SDS011;33253;42.144;25.884;2023-12-07T13:32:54;6.05;;;2.67;;
47523;SDS011;33253;42.144;25.884;2023-12-07T13:35:20;7.15;;;2.60;;
47523;SDS011;33253;42.144;25.884;2023-12-07T13:37:47;2.00;;;1.27;;
47523;SDS011;33253;42.144;25.884;2023-12-07T13:40:12;2.15;;;1.60;;
47523;SDS011;33253;42.144;25.884;2023-12-07T13:42:40;7.00;;;1.90;;
47523;SDS011;33253;42.144;25.884;2023-12-07T13:45:06;7.47;;;2.08;;
47523;SDS011;33253;42.144;25.884;2023-12-07T13:47:33;5.03;;;1.63;;
47523;SDS011;33253;42.144;25.884;2023-12-07T13:50:01;6.82;;;1.55;;
47523;SDS011;33253;42.144;25.884;2023-12-07T13:52:28;11.10;;;1.63;;
47523;SDS011;33253;42.144;25.884;2023-12-07T13:54:54;4.43;;;1.52;;
47523;SDS011;33253;42.144;25.884;2023-12-07T13:57:20;2.95;;;1.45;;
47523;SDS011;33253;42.144;25.884;2023-12-07T13:59:46;5.05;;;1.67;;
47523;SDS011;33253;42.144;25.884;2023-12-07T14:02:12;4.10;;;2.05;;
47523;SDS011;33253;42.144;25.884;2023-12-07T14:04:38;3.05;;;1.90;;
47523;SDS011;33253;42.144;25.884;2023-12-07T14:09:59;3.63;;;2.08;;
47523;SDS011;33253;42.144;25.884;2023-12-07T14:12:26;5.43;;;2.22;;
47523;SDS011;33253;42.144;25.884;2023-12-07T14:28:54;5.18;;;2.10;;
47523;SDS011;33253;42.144;25.884;2023-12-07T14:31:20;6.18;;;2.60;;
47523;SDS011;33253;42.144;25.884;2023-12-07T14:33:45;2.90;;;1.63;;
47523;SDS011;33253;42.144;25.884;2023-12-07T14:36:11;2.92;;;1.60;;
47523;SDS011;33253;42.144;25.884;2023-12-07T14:38:37;3.63;;;1.65;;
47523;SDS011;33253;42.144;25.884;2023-12-07T14:41:03;3.85;;;2.42;;
47523;SDS011;33253;42.144;25.884;2023-12-07T14:43:29;5.00;;;1.73;;
47523;SDS011;33253;42.144;25.884;2023-12-07T14:45:55;3.80;;;1.83;;
47523;SDS011;33253;42.144;25.884;2023-12-07T14:48:20;3.05;;;1.95;;
47523;SDS011;33253;42.144;25.884;2023-12-07T14:50:48;3.72;;;1.80;;
47523;SDS011;33253;42.144;25.884;2023-12-07T14:53:14;2.72;;;1.85;;
47523;SDS011;33253;42.144;25.884;2023-12-07T14:55:39;3.10;;;1.70;;